Time;durP1;ratioP1;P1;durP2;ratioP2;P2;SDS_P1;SDS_P2;PMS_P1;PMS_P2;Temp;Humidity;BMP_temperature;BMP_pressure;BME280_temperature;BME280_humidity;BME280_pressure;Samples;Min_cycle;Max_cycle;Signal;HPM_P1;HPM_P2
2024/01/12 00:01:54;;;;;;;51.42;30.27;;;;;;;;;;5115826;28;20053;-79
2024/01/12 00:04:20;;;;;;;57.55;31.15;;;;;;;;;;5116384;28;20050;-80
2024/01/12 00:06:46;;;;;;;60.85;32.40;;;;;;;;;;5116705;28;20112;-79
2024/01/12 00:09:13;;;;;;;61.42;32.90;;;;;;;;;;5115924;28;20094;-80
2024/01/12 00:11:39;;;;;;;64.18;32.65;;;;;;;;;;5115386;28;20039;-79
2024/01/12 00:14:05;;;;;;;84.00;34.65;;;;;;;;;;5098670;28;20103;-79
2024/01/12 00:16:31;;;;;;;53.55;28.83;;;;;;;;;;5116519;28;20043;-80
2024/01/12 00:18:57;;;;;;;60.03;31.38;;;;;;;;;;5098234;28;20053;-80
2024/01/12 00:21:23;;;;;;;61.08;32.67;;;;;;;;;;5115434;28;20128;-80
2024/01/12 00:23:49;;;;;;;59.85;30.60;;;;;;;;;;5115381;28;20043;-79
2024/01/12 00:26:15;;;;;;;54.63;30.45;;;;;;;;;;5115409;28;20043;-80
2024/01/12 00:28:41;;;;;;;59.45;31.95;;;;;;;;;;5115934;28;20052;-79
2024/01/12 00:31:07;;;;;;;55.83;31.08;;;;;;;;;;5115052;28;20096;-80
2024/01/12 00:33:33;;;;;;;61.00;30.60;;;;;;;;;;5114885;28;20050;-80
2024/01/12 00:35:59;;;;;;;63.65;32.50;;;;;;;;;;5116146;28;20050;-80
2024/01/12 00:38:25;;;;;;;52.80;30.10;;;;;;;;;;5116098;28;20043;-79
2024/01/12 00:40:51;;;;;;;61.72;32.05;;;;;;;;;;5114662;28;20535;-80
2024/01/12 00:43:18;;;;;;;57.35;32.28;;;;;;;;;;5115059;28;20492;-79
2024/01/12 00:45:44;;;;;;;60.00;30.90;;;;;;;;;;5098045;28;20062;-79
2024/01/12 00:48:10;;;;;;;62.25;30.83;;;;;;;;;;5115941;28;20096;-79
2024/01/12 00:50:36;;;;;;;63.75;32.20;;;;;;;;;;5114216;28;20056;-79
2024/01/12 00:53:02;;;;;;;59.55;30.67;;;;;;;;;;5115870;28;20480;-79
2024/01/12 00:55:28;;;;;;;66.93;32.78;;;;;;;;;;5114862;28;20048;-79
2024/01/12 00:57:55;;;;;;;55.65;31.77;;;;;;;;;;5113790;28;20403;-80
2024/01/12 01:00:21;;;;;;;57.25;31.58;;;;;;;;;;5114274;28;20060;-80
2024/01/12 01:02:47;;;;;;;54.35;31.35;;;;;;;;;;5113256;28;20540;-80
2024/01/12 01:05:13;;;;;;;64.05;33.00;;;;;;;;;;5114535;28;20376;-80
2024/01/12 01:07:39;;;;;;;54.42;30.35;;;;;;;;;;5097419;28;20051;-80
2024/01/12 01:10:06;;;;;;;52.30;30.63;;;;;;;;;;5114627;28;20043;-80
2024/01/12 01:12:32;;;;;;;58.92;31.77;;;;;;;;;;5114816;28;20051;-79
2024/01/12 01:14:58;;;;;;;55.38;30.42;;;;;;;;;;5114431;28;20050;-79
2024/01/12 01:17:25;;;;;;;56.25;29.60;;;;;;;;;;5114155;28;20130;-79
2024/01/12 01:19:51;;;;;;;54.53;30.38;;;;;;;;;;5115382;28;20058;-79
2024/01/12 01:22:17;;;;;;;58.40;29.92;;;;;;;;;;5097489;28;20130;-80
2024/01/12 01:24:43;;;;;;;48.50;28.00;;;;;;;;;;5115293;28;20391;-80
2024/01/12 01:27:09;;;;;;;47.13;27.80;;;;;;;;;;5114257;28;20432;-80
2024/01/12 01:29:35;;;;;;;54.05;30.38;;;;;;;;;;5115123;28;20051;-80
2024/01/12 01:32:01;;;;;;;58.25;29.50;;;;;;;;;;5114982;28;20043;-80
2024/01/12 01:34:27;;;;;;;50.08;27.08;;;;;;;;;;5096768;28;20492;-80
2024/01/12 01:36:57;;;;;;;46.92;26.95;;;;;;;;;;5113328;28;20506;-79
2024/01/12 01:39:23;;;;;;;55.03;29.40;;;;;;;;;;5114027;28;20056;-79
2024/01/12 01:41:49;;;;;;;48.03;28.10;;;;;;;;;;5113885;28;20059;-80
2024/01/12 01:44:15;;;;;;;43.85;26.40;;;;;;;;;;5114860;28;20387;-79
2024/01/12 01:46:41;;;;;;;43.50;21.50;;;;;;;;;;5115424;28;20055;-79
2024/01/12 01:49:07;;;;;;;40.72;22.58;;;;;;;;;;5116966;27;20055;-79
2024/01/12 01:51:33;;;;;;;47.58;25.40;;;;;;;;;;5099983;27;20047;-80
2024/01/12 01:53:59;;;;;;;48.97;27.02;;;;;;;;;;5135235;27;20123;-80
2024/01/12 01:56:25;;;;;;;48.28;24.88;;;;;;;;;;5117111;27;20047;-79
2024/01/12 01:58:52;;;;;;;47.53;24.73;;;;;;;;;;5135659;27;20130;-80
2024/01/12 02:01:18;;;;;;;48.38;23.15;;;;;;;;;;5135123;27;20040;-80
2024/01/12 02:03:45;;;;;;;48.20;24.13;;;;;;;;;;5116301;27;20116;-80
2024/01/12 02:06:12;;;;;;;50.08;24.35;;;;;;;;;;5116960;27;20047;-80
2024/01/12 02:08:38;;;;;;;36.95;22.10;;;;;;;;;;5135019;27;20058;-80
2024/01/12 02:11:05;;;;;;;36.35;21.83;;;;;;;;;;5134941;27;20043;-80
2024/01/12 02:13:31;;;;;;;38.33;19.98;;;;;;;;;;5116591;27;20131;-79
2024/01/12 02:15:57;;;;;;;35.08;17.52;;;;;;;;;;5116527;27;20497;-79
2024/01/12 02:18:23;;;;;;;30.75;16.38;;;;;;;;;;5134919;27;20051;-79
2024/01/12 02:20:53;;;;;;;35.83;15.82;;;;;;;;;;5134804;27;20039;-79
2024/01/12 02:23:19;;;;;;;35.67;14.55;;;;;;;;;;5116969;27;20155;-79
2024/01/12 02:25:45;;;;;;;27.35;13.40;;;;;;;;;;5116750;28;20099;-79
2024/01/12 02:28:12;;;;;;;28.88;13.18;;;;;;;;;;5116724;27;20057;-80
2024/01/12 02:30:38;;;;;;;29.00;13.73;;;;;;;;;;5116628;27;20086;-79
2024/01/12 02:33:06;;;;;;;28.45;12.90;;;;;;;;;;5134274;28;20053;-80
2024/01/12 02:35:32;;;;;;;29.75;12.82;;;;;;;;;;5116365;28;20039;-79
2024/01/12 02:37:58;;;;;;;25.83;12.70;;;;;;;;;;5116297;28;20058;-80
2024/01/12 02:40:24;;;;;;;30.27;11.32;;;;;;;;;;5134640;28;20126;-79
2024/01/12 02:42:50;;;;;;;31.50;11.80;;;;;;;;;;5134599;28;20047;-80
2024/01/12 02:45:16;;;;;;;21.92;10.05;;;;;;;;;;5116504;28;20075;-80
2024/01/12 02:47:42;;;;;;;24.17;9.57;;;;;;;;;;5134618;27;20047;-79
2024/01/12 02:50:09;;;;;;;24.70;10.38;;;;;;;;;;5103301;27;20058;-80
2024/01/12 02:52:37;;;;;;;20.73;9.32;;;;;;;;;;5120900;27;20043;-79
2024/01/12 02:55:04;;;;;;;23.80;10.77;;;;;;;;;;5120379;27;20051;-79
2024/01/12 02:57:33;;;;;;;19.65;9.48;;;;;;;;;;5138648;27;20047;-79
2024/01/12 02:59:59;;;;;;;15.50;8.80;;;;;;;;;;5138625;27;20043;-79
2024/01/12 03:02:25;;;;;;;19.80;9.07;;;;;;;;;;5138576;27;20050;-79
2024/01/12 03:04:51;;;;;;;26.05;9.70;;;;;;;;;;5102822;28;20054;-80
2024/01/12 03:07:17;;;;;;;24.02;9.98;;;;;;;;;;5117930;28;20130;-80
2024/01/12 03:09:44;;;;;;;24.48;9.23;;;;;;;;;;5099854;28;20391;-79
2024/01/12 03:12:10;;;;;;;19.98;8.55;;;;;;;;;;5117569;28;20562;-80
2024/01/12 03:14:36;;;;;;;23.80;8.45;;;;;;;;;;5117574;28;20047;-80
2024/01/12 03:17:02;;;;;;;19.45;8.95;;;;;;;;;;5099457;28;20093;-79
2024/01/12 03:19:28;;;;;;;21.15;8.93;;;;;;;;;;5099800;28;20075;-79
2024/01/12 03:21:54;;;;;;;15.48;7.93;;;;;;;;;;5099717;28;20112;-80
2024/01/12 03:24:20;;;;;;;21.00;7.90;;;;;;;;;;5117566;28;20043;-80
2024/01/12 03:26:46;;;;;;;18.70;8.10;;;;;;;;;;5099556;28;20100;-79
2024/01/12 03:29:13;;;;;;;18.85;6.70;;;;;;;;;;5099540;28;20044;-80
2024/01/12 03:31:39;;;;;;;18.27;6.78;;;;;;;;;;5099268;28;20040;-80
2024/01/12 03:34:05;;;;;;;17.15;7.78;;;;;;;;;;5082093;28;20058;-80
2024/01/12 03:36:31;;;;;;;14.77;6.35;;;;;;;;;;5117435;28;20085;-79
2024/01/12 03:38:57;;;;;;;16.98;6.95;;;;;;;;;;5098920;28;20044;-80
2024/01/12 03:41:23;;;;;;;19.77;7.35;;;;;;;;;;5082413;28;20101;-80
2024/01/12 03:43:49;;;;;;;12.70;6.95;;;;;;;;;;5099573;28;20507;-79
2024/01/12 03:46:15;;;;;;;22.00;7.40;;;;;;;;;;5117237;28;20058;-79
2024/01/12 03:48:41;;;;;;;16.02;7.35;;;;;;;;;;5117100;28;20044;-80
2024/01/12 03:51:07;;;;;;;14.48;6.72;;;;;;;;;;5097659;28;20052;-79
2024/01/12 03:53:33;;;;;;;17.67;7.22;;;;;;;;;;5097700;28;20104;-80
2024/01/12 03:55:59;;;;;;;23.98;7.40;;;;;;;;;;5097841;28;20048;-80
2024/01/12 03:58:25;;;;;;;16.65;7.03;;;;;;;;;;5115778;28;20054;-80
2024/01/12 04:00:52;;;;;;;17.38;6.20;;;;;;;;;;5097369;28;20051;-79
2024/01/12 04:03:18;;;;;;;15.80;6.65;;;;;;;;;;5115167;28;20122;-80
2024/01/12 04:05:44;;;;;;;13.65;6.95;;;;;;;;;;5097676;28;20043;-80
2024/01/12 04:08:10;;;;;;;19.67;8.38;;;;;;;;;;5097421;28;20051;-79
2024/01/12 04:10:36;;;;;;;9.60;5.88;;;;;;;;;;5097143;28;20092;-80
2024/01/12 04:13:02;;;;;;;14.57;6.65;;;;;;;;;;5097594;28;20053;-79
2024/01/12 04:15:28;;;;;;;13.95;5.82;;;;;;;;;;5097407;28;20391;-80
2024/01/12 04:17:54;;;;;;;19.10;6.53;;;;;;;;;;5097645;28;20079;-79
2024/01/12 04:20:20;;;;;;;11.77;5.97;;;;;;;;;;5097504;28;20129;-80
2024/01/12 04:22:46;;;;;;;13.45;6.18;;;;;;;;;;5097624;28;20056;-80
2024/01/12 04:25:12;;;;;;;13.13;5.88;;;;;;;;;;5115280;28;20063;-79
2024/01/12 04:27:38;;;;;;;12.55;5.93;;;;;;;;;;5097534;28;20518;-80
2024/01/12 04:30:05;;;;;;;19.95;6.82;;;;;;;;;;5115209;28;20070;-80
2024/01/12 04:32:31;;;;;;;22.15;6.97;;;;;;;;;;5115205;28;20051;-79
2024/01/12 04:34:57;;;;;;;14.23;6.18;;;;;;;;;;5096423;28;20049;-80
2024/01/12 04:37:23;;;;;;;15.23;7.10;;;;;;;;;;5097192;28;20051;-79
2024/01/12 04:39:49;;;;;;;12.73;6.32;;;;;;;;;;5097866;28;20131;-80
2024/01/12 04:42:15;;;;;;;11.60;6.65;;;;;;;;;;5115067;28;20051;-80
2024/01/12 04:44:43;;;;;;;12.80;6.90;;;;;;;;;;5097066;28;20040;-79
2024/01/12 04:47:09;;;;;;;18.30;6.78;;;;;;;;;;5097006;28;20127;-80
2024/01/12 04:49:35;;;;;;;17.25;7.13;;;;;;;;;;5076556;28;1102899;-80
2024/01/12 04:52:02;;;;;;;13.77;6.18;;;;;;;;;;5115853;28;20105;-80
2024/01/12 04:54:28;;;;;;;14.23;6.18;;;;;;;;;;5115984;28;20051;-80
2024/01/12 04:56:54;;;;;;;13.48;6.90;;;;;;;;;;5097910;28;20385;-79
2024/01/12 04:59:20;;;;;;;17.60;6.35;;;;;;;;;;5097211;28;20048;-80
2024/01/12 05:01:46;;;;;;;13.20;6.03;;;;;;;;;;5115141;28;20104;-80
2024/01/12 05:04:13;;;;;;;17.35;6.43;;;;;;;;;;5097245;28;20056;-80
2024/01/12 05:06:39;;;;;;;14.25;6.90;;;;;;;;;;5097518;28;20043;-80
2024/01/12 05:09:08;;;;;;;16.50;5.82;;;;;;;;;;5097578;28;20044;-80
2024/01/12 05:11:34;;;;;;;12.40;6.13;;;;;;;;;;5096451;28;20050;-80
2024/01/12 05:14:00;;;;;;;14.70;6.68;;;;;;;;;;5080687;28;20475;-79
2024/01/12 05:16:26;;;;;;;10.07;6.03;;;;;;;;;;5097910;28;20088;-80
2024/01/12 05:18:52;;;;;;;15.25;6.50;;;;;;;;;;5115709;28;20078;-79
2024/01/12 05:21:18;;;;;;;11.57;5.72;;;;;;;;;;5096032;28;20048;-80
2024/01/12 05:23:44;;;;;;;15.38;6.53;;;;;;;;;;5097261;28;20399;-80
2024/01/12 05:26:12;;;;;;;11.63;6.20;;;;;;;;;;5097265;28;20040;-80
2024/01/12 05:28:38;;;;;;;12.93;6.18;;;;;;;;;;5080542;28;20039;-79
2024/01/12 05:31:05;;;;;;;10.20;6.25;;;;;;;;;;5115330;28;20048;-79
2024/01/12 05:33:31;;;;;;;13.73;6.72;;;;;;;;;;5114516;28;20180;-80
2024/01/12 05:35:57;;;;;;;12.50;5.72;;;;;;;;;;5097229;28;20062;-79
2024/01/12 05:38:23;;;;;;;12.25;5.97;;;;;;;;;;5096900;28;20054;-80
2024/01/12 05:40:49;;;;;;;9.93;5.90;;;;;;;;;;5114972;28;20044;-79
2024/01/12 05:43:17;;;;;;;12.13;6.30;;;;;;;;;;5096627;28;20043;-80
2024/01/12 05:45:43;;;;;;;17.27;5.80;;;;;;;;;;5096915;28;20089;-79
2024/01/12 05:48:10;;;;;;;11.63;5.97;;;;;;;;;;5114832;28;20127;-80
2024/01/12 05:50:36;;;;;;;15.38;6.43;;;;;;;;;;5114244;28;20060;-79
2024/01/12 05:53:03;;;;;;;17.42;6.65;;;;;;;;;;5096417;28;20051;-79
2024/01/12 05:55:29;;;;;;;11.35;6.03;;;;;;;;;;5096508;28;20043;-80
2024/01/12 05:57:55;;;;;;;8.80;5.53;;;;;;;;;;5114671;28;20062;-80
2024/01/12 06:00:21;;;;;;;17.13;7.03;;;;;;;;;;5096323;28;20052;-80
2024/01/12 06:02:47;;;;;;;12.40;5.28;;;;;;;;;;5096533;28;20478;-80
2024/01/12 06:05:14;;;;;;;10.05;5.32;;;;;;;;;;5096189;28;20055;-80
2024/01/12 06:07:40;;;;;;;17.17;5.70;;;;;;;;;;5096734;28;20130;-79
2024/01/12 06:10:08;;;;;;;12.13;6.60;;;;;;;;;;5114361;28;20036;-79
2024/01/12 06:12:34;;;;;;;13.32;6.07;;;;;;;;;;5096405;28;20056;-79
2024/01/12 06:15:01;;;;;;;14.23;5.60;;;;;;;;;;5114416;28;20048;-79
2024/01/12 06:17:27;;;;;;;18.80;6.00;;;;;;;;;;5096273;28;20053;-80
2024/01/12 06:19:53;;;;;;;13.68;6.30;;;;;;;;;;5096396;28;20048;-77
2024/01/12 06:22:19;;;;;;;13.20;6.05;;;;;;;;;;5096311;28;20058;-78
2024/01/12 06:24:45;;;;;;;13.25;6.13;;;;;;;;;;5096342;28;20139;-78
2024/01/12 06:27:11;;;;;;;16.55;6.43;;;;;;;;;;5114079;28;20051;-78
2024/01/12 06:29:37;;;;;;;17.83;6.25;;;;;;;;;;5079227;28;20392;-79
2024/01/12 06:32:04;;;;;;;15.40;6.47;;;;;;;;;;5095865;28;20483;-78
2024/01/12 06:34:30;;;;;;;13.52;6.60;;;;;;;;;;5079040;28;20101;-78
2024/01/12 06:36:59;;;;;;;15.50;6.53;;;;;;;;;;5095973;28;20053;-79
2024/01/12 06:39:25;;;;;;;16.42;6.22;;;;;;;;;;5096193;28;20043;-79
2024/01/12 06:41:52;;;;;;;14.52;5.95;;;;;;;;;;5096031;28;20058;-79
2024/01/12 06:44:19;;;;;;;16.40;6.47;;;;;;;;;;5079123;28;20048;-78
2024/01/12 06:46:45;;;;;;;19.48;6.88;;;;;;;;;;5096115;28;20440;-78
2024/01/12 06:49:11;;;;;;;14.70;5.72;;;;;;;;;;5113776;28;20048;-79
2024/01/12 06:51:37;;;;;;;18.05;6.60;;;;;;;;;;5095940;28;20126;-78
2024/01/12 06:54:04;;;;;;;15.07;6.85;;;;;;;;;;5113725;28;20491;-79
2024/01/12 06:56:30;;;;;;;12.73;6.53;;;;;;;;;;5113788;28;20043;-79
2024/01/12 06:58:57;;;;;;;17.58;6.00;;;;;;;;;;5096020;28;20047;-79
2024/01/12 07:01:23;;;;;;;13.02;5.97;;;;;;;;;;5113879;28;20089;-79
2024/01/12 07:03:51;;;;;;;13.77;6.55;;;;;;;;;;5113447;28;20051;-79
2024/01/12 07:06:17;;;;;;;15.60;6.38;;;;;;;;;;5113833;28;20066;-79
2024/01/12 07:08:43;;;;;;;17.95;6.60;;;;;;;;;;5096524;28;20051;-79
2024/01/12 07:11:09;;;;;;;11.68;5.43;;;;;;;;;;5113740;28;20062;-79
2024/01/12 07:13:35;;;;;;;16.25;6.47;;;;;;;;;;5096153;28;20051;-79
2024/01/12 07:16:02;;;;;;;11.40;5.80;;;;;;;;;;5095705;28;20055;-79
2024/01/12 07:18:28;;;;;;;15.70;7.13;;;;;;;;;;5095587;28;20052;-79
2024/01/12 07:20:56;;;;;;;17.30;6.10;;;;;;;;;;5095482;28;20048;-78
2024/01/12 07:23:23;;;;;;;15.65;6.22;;;;;;;;;;5113421;28;20571;-79
2024/01/12 07:25:49;;;;;;;13.98;6.18;;;;;;;;;;5113687;28;20043;-79
2024/01/12 07:28:15;;;;;;;12.80;6.35;;;;;;;;;;5078720;28;20052;-79
2024/01/12 07:30:41;;;;;;;18.40;6.35;;;;;;;;;;5113559;28;20040;-79
2024/01/12 07:33:08;;;;;;;14.93;5.78;;;;;;;;;;5095952;28;20048;-79
2024/01/12 07:35:34;;;;;;;17.67;6.97;;;;;;;;;;5115950;28;20058;-79
2024/01/12 07:38:00;;;;;;;9.38;6.45;;;;;;;;;;5099368;28;20480;-79
2024/01/12 07:40:26;;;;;;;12.90;6.22;;;;;;;;;;5099387;28;20395;-79
2024/01/12 07:42:52;;;;;;;14.73;6.53;;;;;;;;;;5099331;28;20097;-79
2024/01/12 07:45:18;;;;;;;15.98;6.72;;;;;;;;;;5117251;28;20055;-78
2024/01/12 07:47:44;;;;;;;15.10;6.78;;;;;;;;;;5099229;28;20047;-78
2024/01/12 07:50:10;;;;;;;16.25;7.05;;;;;;;;;;5098678;28;20053;-79
2024/01/12 07:52:36;;;;;;;16.33;6.32;;;;;;;;;;5117045;28;20047;-79
2024/01/12 07:55:02;;;;;;;16.30;6.30;;;;;;;;;;5154748;27;20235;-79
2024/01/12 07:57:28;;;;;;;22.33;7.00;;;;;;;;;;5158289;27;20042;-78
2024/01/12 07:59:56;;;;;;;17.58;7.15;;;;;;;;;;5140036;27;20129;-77
2024/01/12 08:02:23;;;;;;;17.40;6.47;;;;;;;;;;5158058;27;20133;-78
2024/01/12 08:04:49;;;;;;;16.33;6.93;;;;;;;;;;5139580;27;20050;-78
2024/01/12 08:07:15;;;;;;;20.88;7.13;;;;;;;;;;5139898;27;20120;-78
2024/01/12 08:09:42;;;;;;;13.25;6.40;;;;;;;;;;5122838;27;20569;-78
2024/01/12 08:12:08;;;;;;;13.82;6.35;;;;;;;;;;5158342;27;20050;-78
2024/01/12 08:14:34;;;;;;;15.65;6.68;;;;;;;;;;5139777;27;20065;-78
2024/01/12 08:17:00;;;;;;;18.25;7.40;;;;;;;;;;5157906;27;20047;-78
2024/01/12 08:19:26;;;;;;;12.30;6.72;;;;;;;;;;5139663;27;20051;-78
2024/01/12 08:21:52;;;;;;;13.15;6.25;;;;;;;;;;5158007;27;20046;-78
2024/01/12 08:24:18;;;;;;;14.77;6.93;;;;;;;;;;5139393;27;20477;-79
2024/01/12 08:26:45;;;;;;;13.38;6.03;;;;;;;;;;5122427;27;20051;-80
2024/01/12 08:29:11;;;;;;;13.25;6.20;;;;;;;;;;5139515;27;20053;-80
2024/01/12 08:31:37;;;;;;;14.90;7.22;;;;;;;;;;5157604;27;20042;-80
2024/01/12 08:34:03;;;;;;;14.05;6.30;;;;;;;;;;5138872;27;20046;-80
2024/01/12 08:36:29;;;;;;;18.70;7.32;;;;;;;;;;5139805;27;20043;-80
2024/01/12 08:38:56;;;;;;;14.55;7.05;;;;;;;;;;5157480;27;20095;-79
2024/01/12 08:41:22;;;;;;;14.52;7.22;;;;;;;;;;5139326;27;20470;-78
2024/01/12 08:43:48;;;;;;;18.77;8.60;;;;;;;;;;5157556;27;20042;-78
2024/01/12 08:46:14;;;;;;;17.92;7.20;;;;;;;;;;5138206;27;20512;-79
2024/01/12 08:48:41;;;;;;;20.25;9.30;;;;;;;;;;5139377;27;20386;-80
2024/01/12 08:51:07;;;;;;;17.73;7.78;;;;;;;;;;5138265;27;20106;-78
2024/01/12 08:53:33;;;;;;;19.83;9.15;;;;;;;;;;5139194;27;20057;-84
2024/01/12 08:56:00;;;;;;;18.73;8.88;;;;;;;;;;5121951;27;20046;-79
2024/01/12 08:58:26;;;;;;;18.58;8.10;;;;;;;;;;5139058;27;20054;-80
2024/01/12 09:00:52;;;;;;;16.10;7.80;;;;;;;;;;5138840;27;20103;-79
2024/01/12 09:03:18;;;;;;;17.92;8.05;;;;;;;;;;5139125;27;20054;-79
2024/01/12 09:05:45;;;;;;;15.52;8.48;;;;;;;;;;5138459;27;20047;-80
2024/01/12 09:08:11;;;;;;;16.67;8.98;;;;;;;;;;5138862;27;20051;-80
2024/01/12 09:10:37;;;;;;;14.95;8.27;;;;;;;;;;5156561;27;20077;-79
2024/01/12 09:13:03;;;;;;;14.75;7.90;;;;;;;;;;5138521;27;20053;-80
2024/01/12 09:15:29;;;;;;;21.90;8.75;;;;;;;;;;5138395;27;20473;-79
2024/01/12 09:17:55;;;;;;;22.00;8.32;;;;;;;;;;5138178;27;20068;-80
2024/01/12 09:20:21;;;;;;;22.20;10.35;;;;;;;;;;5138616;27;20485;-79
2024/01/12 09:22:47;;;;;;;19.75;8.48;;;;;;;;;;5138404;27;20436;-80
2024/01/12 09:25:13;;;;;;;17.35;8.85;;;;;;;;;;5138218;27;20050;-80
2024/01/12 09:27:39;;;;;;;19.65;9.20;;;;;;;;;;5156801;27;20046;-79
2024/01/12 09:30:06;;;;;;;16.67;8.93;;;;;;;;;;5156336;27;20134;-79
2024/01/12 09:32:32;;;;;;;19.88;9.27;;;;;;;;;;5138044;27;20481;-80
2024/01/12 09:34:58;;;;;;;17.63;8.38;;;;;;;;;;5137854;27;20445;-80
2024/01/12 09:37:24;;;;;;;19.25;8.38;;;;;;;;;;5137486;27;20482;-80
2024/01/12 09:39:50;;;;;;;18.83;9.02;;;;;;;;;;5137675;27;20050;-79
2024/01/12 09:42:17;;;;;;;16.45;8.52;;;;;;;;;;5156298;27;20450;-79
2024/01/12 09:44:48;;;;;;;17.48;8.98;;;;;;;;;;5137680;27;20490;-79
2024/01/12 09:47:16;;;;;;;17.38;8.77;;;;;;;;;;5156193;27;20057;-79
2024/01/12 09:49:43;;;;;;;20.52;9.05;;;;;;;;;;5137614;27;20135;-78
2024/01/12 09:52:10;;;;;;;16.88;8.43;;;;;;;;;;5156066;27;20179;-79
2024/01/12 09:54:36;;;;;;;18.45;8.40;;;;;;;;;;5155923;27;20178;-79
2024/01/12 09:57:08;;;;;;;17.67;8.38;;;;;;;;;;5137860;27;20039;-79
2024/01/12 09:59:37;;;;;;;15.20;8.82;;;;;;;;;;5156383;27;20047;-79
2024/01/12 10:02:04;;;;;;;19.08;9.38;;;;;;;;;;5156197;27;20042;-79
2024/01/12 10:04:30;;;;;;;20.08;8.68;;;;;;;;;;5155509;27;20053;-79
2024/01/12 10:06:56;;;;;;;17.52;8.95;;;;;;;;;;5120547;27;20049;-79
2024/01/12 10:09:24;;;;;;;13.45;7.53;;;;;;;;;;5155863;27;20047;-79
2024/01/12 10:11:53;;;;;;;17.33;8.32;;;;;;;;;;5137693;27;20047;-79
2024/01/12 10:14:20;;;;;;;19.67;7.95;;;;;;;;;;5137510;27;20085;-79
2024/01/12 10:16:56;;;;;;;14.27;7.30;;;;;;;;;;5137448;27;20394;-79
2024/01/12 10:19:23;;;;;;;13.52;7.45;;;;;;;;;;5137679;27;20397;-79
2024/01/12 10:21:49;;;;;;;17.63;7.90;;;;;;;;;;5136909;27;20134;-79
2024/01/12 10:24:19;;;;;;;14.13;7.55;;;;;;;;;;5155730;27;20119;-79
2024/01/12 10:26:48;;;;;;;17.50;7.63;;;;;;;;;;5137401;27;20050;-79
2024/01/12 10:29:14;;;;;;;15.02;7.70;;;;;;;;;;5137280;27;20422;-79
2024/01/12 10:31:42;;;;;;;19.45;7.95;;;;;;;;;;5119765;27;20090;-79
2024/01/12 10:34:11;;;;;;;14.23;7.28;;;;;;;;;;5155006;27;20054;-80
2024/01/12 10:36:38;;;;;;;14.18;7.10;;;;;;;;;;5137424;27;20043;-79
2024/01/12 10:39:06;;;;;;;14.27;6.40;;;;;;;;;;5155395;27;20043;-79
2024/01/12 10:41:34;;;;;;;17.50;7.97;;;;;;;;;;5145822;27;20051;-79
2024/01/12 10:44:03;;;;;;;17.35;7.35;;;;;;;;;;5134683;28;20043;-80
2024/01/12 10:46:29;;;;;;;16.25;7.28;;;;;;;;;;5099458;28;20055;-79
2024/01/12 10:49:15;;;;;;;16.17;7.03;;;;;;;;;;5116462;28;20043;-80
2024/01/12 10:51:58;;;;;;;13.63;6.78;;;;;;;;;;5105578;28;20047;-80
2024/01/12 10:54:28;;;;;;;18.02;7.30;;;;;;;;;;5134596;28;20047;-79
2024/01/12 10:56:55;;;;;;;13.63;7.13;;;;;;;;;;5116548;28;20109;-79
2024/01/12 10:59:22;;;;;;;18.63;7.45;;;;;;;;;;5134484;28;20433;-80
2024/01/12 11:01:49;;;;;;;11.27;6.82;;;;;;;;;;5116293;28;20047;-80
2024/01/12 11:04:16;;;;;;;16.13;7.15;;;;;;;;;;5116509;28;20043;-80
2024/01/12 11:06:46;;;;;;;13.75;6.50;;;;;;;;;;5134364;28;20581;-79
2024/01/12 11:09:16;;;;;;;17.50;7.03;;;;;;;;;;5135214;27;20043;-79
2024/01/12 11:11:49;;;;;;;20.15;6.45;;;;;;;;;;5138466;27;20047;-79
2024/01/12 11:14:17;;;;;;;15.80;6.72;;;;;;;;;;5138173;27;20502;-79
2024/01/12 11:16:43;;;;;;;20.48;6.60;;;;;;;;;;5120408;27;20047;-80
2024/01/12 11:19:15;;;;;;;18.70;6.45;;;;;;;;;;5119849;27;20502;-79
2024/01/12 11:21:42;;;;;;;16.50;6.53;;;;;;;;;;5138265;27;20043;-80
2024/01/12 11:24:12;;;;;;;14.80;6.85;;;;;;;;;;5120131;27;20407;-80
2024/01/12 11:26:38;;;;;;;17.40;6.13;;;;;;;;;;5120110;27;20039;-79
2024/01/12 11:29:04;;;;;;;16.20;5.35;;;;;;;;;;5119937;27;20082;-79
2024/01/12 11:31:30;;;;;;;14.98;5.28;;;;;;;;;;5119806;27;20487;-79
2024/01/12 11:34:00;;;;;;;12.80;4.70;;;;;;;;;;5119269;27;20491;-80
2024/01/12 11:36:27;;;;;;;17.75;4.90;;;;;;;;;;5102818;27;20054;-80
2024/01/12 11:38:56;;;;;;;13.07;4.47;;;;;;;;;;5119851;27;20070;-80
2024/01/12 11:41:28;;;;;;;14.50;5.03;;;;;;;;;;5119749;27;20090;-80
2024/01/12 11:43:54;;;;;;;18.85;5.05;;;;;;;;;;5138176;27;20055;-79
2024/01/12 11:46:20;;;;;;;11.68;3.78;;;;;;;;;;5119368;27;20103;-79
2024/01/12 11:48:49;;;;;;;21.65;4.60;;;;;;;;;;5108137;27;21230;-80
2024/01/12 11:51:23;;;;;;;20.55;4.45;;;;;;;;;;5095399;28;20052;-80
2024/01/12 11:53:50;;;;;;;15.88;4.72;;;;;;;;;;5108150;27;20064;-80
2024/01/12 11:56:16;;;;;;;18.55;4.55;;;;;;;;;;5117711;27;20040;-80
2024/01/12 11:58:43;;;;;;;11.80;4.53;;;;;;;;;;5117053;27;20047;-81
2024/01/12 12:01:09;;;;;;;21.20;5.05;;;;;;;;;;5101478;27;20035;-80
2024/01/12 12:03:35;;;;;;;16.40;3.90;;;;;;;;;;5117302;27;20391;-80
2024/01/12 12:06:01;;;;;;;14.00;3.20;;;;;;;;;;5097437;28;20043;-80
2024/01/12 12:08:27;;;;;;;18.63;4.05;;;;;;;;;;5128980;27;20047;-81
2024/01/12 12:10:53;;;;;;;18.73;3.95;;;;;;;;;;5118294;27;20047;-80
2024/01/12 12:13:20;;;;;;;16.65;3.40;;;;;;;;;;5118231;27;20046;-81
2024/01/12 12:15:46;;;;;;;16.13;3.72;;;;;;;;;;5098839;27;20043;-80
2024/01/12 12:18:13;;;;;;;15.57;3.53;;;;;;;;;;5118990;27;20174;-81
2024/01/12 12:20:41;;;;;;;19.17;3.63;;;;;;;;;;5118443;27;20051;-80
2024/01/12 12:23:07;;;;;;;18.15;3.65;;;;;;;;;;5118720;27;20376;-80
2024/01/12 12:25:33;;;;;;;19.95;3.40;;;;;;;;;;5119130;27;20043;-80
2024/01/12 12:27:59;;;;;;;13.38;2.90;;;;;;;;;;5118680;27;20039;-80
2024/01/12 12:30:28;;;;;;;16.48;3.10;;;;;;;;;;5118796;27;20039;-80
2024/01/12 12:32:58;;;;;;;20.90;3.88;;;;;;;;;;5118754;27;20054;-80
2024/01/12 12:35:24;;;;;;;16.67;2.92;;;;;;;;;;5118455;27;20069;-80
2024/01/12 12:37:51;;;;;;;17.00;3.60;;;;;;;;;;5118737;27;20547;-80
2024/01/12 12:40:18;;;;;;;13.57;2.80;;;;;;;;;;5118454;27;20096;-80
2024/01/12 12:42:44;;;;;;;17.02;3.08;;;;;;;;;;5118537;27;20390;-80
2024/01/12 12:45:10;;;;;;;16.42;2.45;;;;;;;;;;5118547;27;20432;-80
2024/01/12 12:47:37;;;;;;;14.15;2.00;;;;;;;;;;5118275;27;20043;-80
2024/01/12 12:50:09;;;;;;;12.30;2.38;;;;;;;;;;5117983;27;20055;-80
2024/01/12 12:52:36;;;;;;;14.25;2.58;;;;;;;;;;5137017;27;20048;-80
2024/01/12 12:55:03;;;;;;;12.27;2.28;;;;;;;;;;5117754;27;20035;-81
2024/01/12 12:57:29;;;;;;;19.20;2.92;;;;;;;;;;5114674;27;20043;-80
2024/01/12 12:59:55;;;;;;;13.00;2.10;;;;;;;;;;5101510;27;20054;-80
2024/01/12 13:02:21;;;;;;;9.55;1.30;;;;;;;;;;5117759;27;20505;-81
2024/01/12 13:04:48;;;;;;;11.63;2.33;;;;;;;;;;5117697;27;20376;-80
2024/01/12 13:07:14;;;;;;;14.77;1.90;;;;;;;;;;5136240;27;20046;-80
2024/01/12 13:09:41;;;;;;;18.98;2.72;;;;;;;;;;5111475;28;20039;-80
2024/01/12 13:12:09;;;;;;;21.45;2.47;;;;;;;;;;5084043;27;20046;-80
2024/01/12 13:14:35;;;;;;;14.80;2.42;;;;;;;;;;5114853;27;20486;-80
2024/01/12 13:17:01;;;;;;;9.73;2.08;;;;;;;;;;5101057;27;20516;-80
2024/01/12 13:19:27;;;;;;;16.77;2.20;;;;;;;;;;5100896;27;20053;-80
2024/01/12 13:21:53;;;;;;;15.88;2.17;;;;;;;;;;5117700;27;20443;-80
2024/01/12 13:24:20;;;;;;;14.60;2.40;;;;;;;;;;5117641;27;20043;-80
2024/01/12 13:26:46;;;;;;;16.35;2.10;;;;;;;;;;5135831;27;20039;-80
2024/01/12 13:29:12;;;;;;;19.08;2.78;;;;;;;;;;5117405;27;20043;-80
2024/01/12 13:31:42;;;;;;;15.35;2.72;;;;;;;;;;5099850;28;20081;-79
2024/01/12 13:34:09;;;;;;;13.00;2.17;;;;;;;;;;5100355;27;20443;-80
2024/01/12 13:36:35;;;;;;;18.75;2.65;;;;;;;;;;5135648;27;20078;-80
2024/01/12 13:39:02;;;;;;;24.38;3.42;;;;;;;;;;5135403;27;20085;-80
2024/01/12 13:41:28;;;;;;;15.23;2.65;;;;;;;;;;5117363;27;20407;-80
2024/01/12 13:43:54;;;;;;;12.95;2.53;;;;;;;;;;5135654;27;20080;-79
2024/01/12 13:46:20;;;;;;;15.73;2.83;;;;;;;;;;5117364;27;20054;-80
2024/01/12 13:48:46;;;;;;;13.43;2.22;;;;;;;;;;5117271;27;20043;-80
2024/01/12 13:51:15;;;;;;;14.30;2.83;;;;;;;;;;5116784;27;20553;-79
2024/01/12 13:53:42;;;;;;;13.88;1.98;;;;;;;;;;5135393;27;20050;-79
2024/01/12 13:56:08;;;;;;;17.23;1.65;;;;;;;;;;5117259;27;20128;-80
2024/01/12 13:58:34;;;;;;;14.45;2.55;;;;;;;;;;5134881;27;20057;-80
2024/01/12 14:01:00;;;;;;;17.70;2.40;;;;;;;;;;5118970;27;20043;-80
2024/01/12 14:03:26;;;;;;;13.82;2.30;;;;;;;;;;5096754;28;20463;-80
2024/01/12 14:05:54;;;;;;;10.38;2.00;;;;;;;;;;5127123;27;20046;-80
2024/01/12 14:08:20;;;;;;;17.67;2.97;;;;;;;;;;5122321;27;20446;-80
2024/01/12 14:10:48;;;;;;;15.88;2.65;;;;;;;;;;5135949;27;20103;-79
2024/01/12 14:13:16;;;;;;;13.43;2.30;;;;;;;;;;5137338;27;20047;-80
2024/01/12 14:15:43;;;;;;;15.77;2.42;;;;;;;;;;5137543;27;20438;-80
2024/01/12 14:18:10;;;;;;;15.88;2.40;;;;;;;;;;5120565;27;20370;-80
2024/01/12 14:20:36;;;;;;;16.17;1.83;;;;;;;;;;5137485;27;20046;-80
2024/01/12 14:23:02;;;;;;;14.07;2.15;;;;;;;;;;5137233;27;20153;-80
2024/01/12 14:25:30;;;;;;;13.75;2.10;;;;;;;;;;5120235;27;20057;-80